Mobile Downtown Airport
KBFM : now visible

Airfield :











YOU CAN JOIN US ON...

 
LOGIN :

Register | Disclaimer

   EN    FR    IT 

 









Legend :    VFR   Marginal VFR   IFR   Intensive IFR   Very Intensive IFR
Visi :
Ceiling :
>= 8 km
>= 3000ft
5 to 8 km
1000 to 3000 ft
1500m to 5 km
500 to 1000 ft
800 to 1500m
200 to 500 ft
< 800m
< 200 ft
Symbols :   Thunderstorms  Fog  Heavy snow  Heavy precipitations  Wind > 20 kt






- Airport Elevation : 26 ft


KBFM - Mobile Downtown

CURRENT METAR :
  • 151553Z 12006KT 10SM CLR 18/15 A3010 RMK AO2 SLP191 T01780150

EXPIRED METARs :
  • 151453Z 15004KT 10SM CLR 16/14 A3009 RMK AO2 SLP188 T01610139 53015
  • 151353Z 10004KT 8SM CLR 15/13 A3007 RMK AO2 SLP182 T01500133

TAF KBFM
Valid from the 15 at 13:00 until the 16 at 12:00 UTC


151303Z 1513/1612 08005KT P6SM FEW060
FM151500 12006KT P6SM SCT019
FM151600 14008KT P6SM SCT060
FM160600 15004KT P6SM BKN023
FM160900 15004KT 4SM BR BKN017



MET'MAP, your aeronautical weather chart ! - Copyright ORBIFLY December 2007 - Disclaimer

ORBIFLY MET'MAP TEAM :

Programming & Development : Alexandra Zaïnal
Concept & original design : Baudouin d'Aumeries
Assistance for programming : Marc-Olivier Méhu
Technical & hardware support : Manuel Goepfert

Contact : metmap@orbifly.com




SOURCES & CREDITS :

   NOAA       Earth
Advisory